To NAV CANADA Home Page Login to a new session Search on AWWS site Feedback and Comments Disclaimer Vers la page française équivalente Tips FAQ What's new on the site To the Forecasts and Observations / NOTAM section To "File a Flight Plan" website Publications and other links Update of the User's profile FIC Telephone Numbers My Weather Data Folder Route Weather Data Regional Weather Data Local Weather Data To the Forecasts and Observations / NOTAM section
Request Generated 08/22/2017 at 03:16:10 UTC . Weather information available at that time is displayed.

METAR/TAF

GANDER/GANDER INTL/NL    

METAR CYQX 220300Z 24007KT 20SM FEW250 16/11 A2984 RMK CI1 SLP107
DENSITY ALT 800FT=
METAR CYQX 220200Z 26006KT 20SM FEW180 FEW250 16/11 A2984 RMK AC1CI1
SLP107 DENSITY ALT 900FT=
METAR CYQX 220100Z 28011KT 20SM FEW180 FEW250 17/11 A2984 RMK AC1CI1
SLP107 DENSITY ALT 1000FT=

TAF CYQX 212339Z 2200/2224 29012KT P6SM FEW040
FM220600 24010KT P6SM SCT040
FM220900 23012KT P6SM BKN040
BECMG 2210/2212 23015G25KT
FM221200 23015G25KT P6SM SCT060
FM221700 26018G28KT P6SM BKN050 TEMPO 2217/2221 P6SM -SHRA PROB30
2218/2221 VRB15G25KT 3SM TSRA BR BKN040CB
FM222100 30012G22KT P6SM FEW050
BECMG 2221/2223 35010KT
RMK NXT FCST BY 220600Z=
Your time UTC time
Weather data provided by Environment Canada and NAV CANADA